sensor_id;sensor_type;location;lat;lon;timestamp;temperature;humidity
8778;DHT22;4425;50.872;4.712;2022-12-20T00:01:27;12.10;99.90
8778;DHT22;4425;50.872;4.712;2022-12-20T00:03:56;12.20;99.90
8778;DHT22;4425;50.872;4.712;2022-12-20T00:06:25;12.20;99.90
8778;DHT22;4425;50.872;4.712;2022-12-20T00:08:53;12.20;99.90
8778;DHT22;4425;50.872;4.712;2022-12-20T00:11:20;12.20;99.90
8778;DHT22;4425;50.872;4.712;2022-12-20T00:13:47;12.30;99.90
8778;DHT22;4425;50.872;4.712;2022-12-20T00:16:18;12.30;99.90
8778;DHT22;4425;50.872;4.712;2022-12-20T00:18:49;12.20;99.90
8778;DHT22;4425;50.872;4.712;2022-12-20T00:21:17;12.20;99.90
8778;DHT22;4425;50.872;4.712;2022-12-20T00:23:46;12.30;99.90
8778;DHT22;4425;50.872;4.712;2022-12-20T00:26:15;12.20;99.90
8778;DHT22;4425;50.872;4.712;2022-12-20T00:28:43;12.30;99.90
8778;DHT22;4425;50.872;4.712;2022-12-20T00:31:13;12.30;99.90
8778;DHT22;4425;50.872;4.712;2022-12-20T00:33:43;12.30;99.90
8778;DHT22;4425;50.872;4.712;2022-12-20T00:36:10;12.30;99.90
8778;DHT22;4425;50.872;4.712;2022-12-20T00:38:37;12.20;99.90
8778;DHT22;4425;50.872;4.712;2022-12-20T00:41:08;12.20;99.90
8778;DHT22;4425;50.872;4.712;2022-12-20T00:43:38;12.20;99.90
8778;DHT22;4425;50.872;4.712;2022-12-20T00:46:07;12.10;99.90
8778;DHT22;4425;50.872;4.712;2022-12-20T00:48:35;12.00;99.90
8778;DHT22;4425;50.872;4.712;2022-12-20T00:51:04;12.00;99.90
8778;DHT22;4425;50.872;4.712;2022-12-20T00:53:32;12.00;99.90
8778;DHT22;4425;50.872;4.712;2022-12-20T00:56:00;11.90;99.90
8778;DHT22;4425;50.872;4.712;2022-12-20T00:58:31;11.90;99.90
8778;DHT22;4425;50.872;4.712;2022-12-20T01:00:59;11.90;99.90
8778;DHT22;4425;50.872;4.712;2022-12-20T01:03:27;11.90;99.90
8778;DHT22;4425;50.872;4.712;2022-12-20T01:05:56;11.90;99.90
8778;DHT22;4425;50.872;4.712;2022-12-20T01:08:24;11.90;99.90
8778;DHT22;4425;50.872;4.712;2022-12-20T01:10:58;11.90;99.90
8778;DHT22;4425;50.872;4.712;2022-12-20T01:13:25;11.80;99.90
8778;DHT22;4425;50.872;4.712;2022-12-20T01:15:54;11.80;99.90
8778;DHT22;4425;50.872;4.712;2022-12-20T01:18:22;11.80;99.90
8778;DHT22;4425;50.872;4.712;2022-12-20T01:21:00;11.70;99.90
8778;DHT22;4425;50.872;4.712;2022-12-20T01:23:28;11.70;99.90
8778;DHT22;4425;50.872;4.712;2022-12-20T01:25:57;11.60;99.90
8778;DHT22;4425;50.872;4.712;2022-12-20T01:28:25;11.60;99.90
8778;DHT22;4425;50.872;4.712;2022-12-20T01:30:53;11.70;99.90
8778;DHT22;4425;50.872;4.712;2022-12-20T01:33:27;11.70;99.90
8778;DHT22;4425;50.872;4.712;2022-12-20T01:36:10;11.70;99.90
8778;DHT22;4425;50.872;4.712;2022-12-20T01:38:37;11.60;99.90
8778;DHT22;4425;50.872;4.712;2022-12-20T01:41:06;11.60;99.90
8778;DHT22;4425;50.872;4.712;2022-12-20T01:43:49;11.60;99.90
8778;DHT22;4425;50.872;4.712;2022-12-20T01:46:24;11.60;99.90
8778;DHT22;4425;50.872;4.712;2022-12-20T01:48:55;11.60;99.90
8778;DHT22;4425;50.872;4.712;2022-12-20T01:51:24;11.60;99.90
8778;DHT22;4425;50.872;4.712;2022-12-20T01:53:56;11.60;99.90
8778;DHT22;4425;50.872;4.712;2022-12-20T01:56:26;11.50;99.90
8778;DHT22;4425;50.872;4.712;2022-12-20T01:58:54;11.50;99.90
8778;DHT22;4425;50.872;4.712;2022-12-20T02:01:24;11.50;99.90
8778;DHT22;4425;50.872;4.712;2022-12-20T02:03:53;11.50;99.90
8778;DHT22;4425;50.872;4.712;2022-12-20T02:06:34;11.50;99.90
8778;DHT22;4425;50.872;4.712;2022-12-20T02:09:03;11.60;99.90
8778;DHT22;4425;50.872;4.712;2022-12-20T02:11:59;11.60;99.90
8778;DHT22;4425;50.872;4.712;2022-12-20T02:14:40;11.60;99.90
8778;DHT22;4425;50.872;4.712;2022-12-20T02:17:17;11.70;99.90
8778;DHT22;4425;50.872;4.712;2022-12-20T02:20:04;11.70;99.90
8778;DHT22;4425;50.872;4.712;2022-12-20T02:22:51;11.70;99.90
8778;DHT22;4425;50.872;4.712;2022-12-20T02:25:43;11.70;99.90
8778;DHT22;4425;50.872;4.712;2022-12-20T02:28:28;11.70;99.90
8778;DHT22;4425;50.872;4.712;2022-12-20T02:31:04;11.70;99.90
8778;DHT22;4425;50.872;4.712;2022-12-20T02:33:34;11.70;99.90
8778;DHT22;4425;50.872;4.712;2022-12-20T02:36:04;11.70;99.90
8778;DHT22;4425;50.872;4.712;2022-12-20T02:38:33;11.70;99.90
8778;DHT22;4425;50.872;4.712;2022-12-20T02:41:03;11.70;99.90
8778;DHT22;4425;50.872;4.712;2022-12-20T02:43:33;11.80;99.90
8778;DHT22;4425;50.872;4.712;2022-12-20T02:46:23;11.70;99.90
8778;DHT22;4425;50.872;4.712;2022-12-20T02:48:54;11.70;99.90
8778;DHT22;4425;50.872;4.712;2022-12-20T02:51:22;11.70;99.90
8778;DHT22;4425;50.872;4.712;2022-12-20T02:53:52;11.70;99.90
8778;DHT22;4425;50.872;4.712;2022-12-20T02:56:21;11.60;99.90
8778;DHT22;4425;50.872;4.712;2022-12-20T02:58:54;11.60;99.90
8778;DHT22;4425;50.872;4.712;2022-12-20T03:01:32;11.50;99.90
8778;DHT22;4425;50.872;4.712;2022-12-20T03:04:00;11.40;99.90
8778;DHT22;4425;50.872;4.712;2022-12-20T03:06:28;11.40;99.90
8778;DHT22;4425;50.872;4.712;2022-12-20T03:08:55;11.50;99.90
8778;DHT22;4425;50.872;4.712;2022-12-20T03:11:22;11.40;99.90
8778;DHT22;4425;50.872;4.712;2022-12-20T03:13:49;11.40;99.90
8778;DHT22;4425;50.872;4.712;2022-12-20T03:16:16;11.40;99.90
8778;DHT22;4425;50.872;4.712;2022-12-20T03:18:45;11.40;99.90
8778;DHT22;4425;50.872;4.712;2022-12-20T03:21:12;11.50;99.90
8778;DHT22;4425;50.872;4.712;2022-12-20T03:23:39;11.50;99.90
8778;DHT22;4425;50.872;4.712;2022-12-20T03:26:07;11.50;99.90
8778;DHT22;4425;50.872;4.712;2022-12-20T03:28:34;11.50;99.90
8778;DHT22;4425;50.872;4.712;2022-12-20T03:31:01;11.50;99.90
8778;DHT22;4425;50.872;4.712;2022-12-20T03:33:28;11.60;99.90
8778;DHT22;4425;50.872;4.712;2022-12-20T03:35:56;11.70;99.90
8778;DHT22;4425;50.872;4.712;2022-12-20T03:38:23;11.70;99.90
8778;DHT22;4425;50.872;4.712;2022-12-20T03:40:50;11.70;99.90
8778;DHT22;4425;50.872;4.712;2022-12-20T03:43:18;11.70;99.90
8778;DHT22;4425;50.872;4.712;2022-12-20T03:45:45;11.70;99.90
8778;DHT22;4425;50.872;4.712;2022-12-20T03:48:12;11.70;99.90
8778;DHT22;4425;50.872;4.712;2022-12-20T03:50:39;11.80;99.90
8778;DHT22;4425;50.872;4.712;2022-12-20T03:53:07;11.80;99.90
8778;DHT22;4425;50.872;4.712;2022-12-20T03:55:34;11.70;99.90
8778;DHT22;4425;50.872;4.712;2022-12-20T03:58:01;11.70;99.90
8778;DHT22;4425;50.872;4.712;2022-12-20T04:00:28;11.70;99.90
8778;DHT22;4425;50.872;4.712;2022-12-20T04:02:57;11.60;99.90
8778;DHT22;4425;50.872;4.712;2022-12-20T04:05:24;11.60;99.90
8778;DHT22;4425;50.872;4.712;2022-12-20T04:07:52;11.50;99.90
8778;DHT22;4425;50.872;4.712;2022-12-20T04:10:22;11.50;99.90
8778;DHT22;4425;50.872;4.712;2022-12-20T04:12:49;11.40;99.90
8778;DHT22;4425;50.872;4.712;2022-12-20T04:15:16;11.40;99.90
8778;DHT22;4425;50.872;4.712;2022-12-20T04:17:43;11.40;99.90
8778;DHT22;4425;50.872;4.712;2022-12-20T04:20:13;11.30;99.90
8778;DHT22;4425;50.872;4.712;2022-12-20T04:22:51;11.40;99.90
8778;DHT22;4425;50.872;4.712;2022-12-20T04:25:19;11.40;99.90
8778;DHT22;4425;50.872;4.712;2022-12-20T04:27:51;11.40;99.90
8778;DHT22;4425;50.872;4.712;2022-12-20T04:30:21;11.40;99.90
8778;DHT22;4425;50.872;4.712;2022-12-20T04:32:47;11.30;99.90
8778;DHT22;4425;50.872;4.712;2022-12-20T04:35:19;11.40;99.90
8778;DHT22;4425;50.872;4.712;2022-12-20T04:37:46;11.40;99.90
8778;DHT22;4425;50.872;4.712;2022-12-20T04:40:14;11.40;99.90
8778;DHT22;4425;50.872;4.712;2022-12-20T04:42:41;11.40;99.90
8778;DHT22;4425;50.872;4.712;2022-12-20T04:45:10;11.40;99.90
8778;DHT22;4425;50.872;4.712;2022-12-20T04:47:38;11.50;99.90
8778;DHT22;4425;50.872;4.712;2022-12-20T04:50:07;11.60;99.90
8778;DHT22;4425;50.872;4.712;2022-12-20T04:52:35;11.70;99.90
8778;DHT22;4425;50.872;4.712;2022-12-20T04:55:21;11.70;99.90
8778;DHT22;4425;50.872;4.712;2022-12-20T04:57:51;11.70;99.90
8778;DHT22;4425;50.872;4.712;2022-12-20T05:00:20;11.70;99.90
8778;DHT22;4425;50.872;4.712;2022-12-20T05:02:48;11.70;99.90
8778;DHT22;4425;50.872;4.712;2022-12-20T05:05:15;11.70;99.90
8778;DHT22;4425;50.872;4.712;2022-12-20T05:07:42;11.80;99.90
8778;DHT22;4425;50.872;4.712;2022-12-20T05:10:10;11.80;99.90
8778;DHT22;4425;50.872;4.712;2022-12-20T05:12:40;11.80;99.90
8778;DHT22;4425;50.872;4.712;2022-12-20T05:15:10;11.80;99.90
8778;DHT22;4425;50.872;4.712;2022-12-20T05:17:38;11.80;99.90
8778;DHT22;4425;50.872;4.712;2022-12-20T05:20:13;11.80;99.90
8778;DHT22;4425;50.872;4.712;2022-12-20T05:22:57;11.80;99.90
8778;DHT22;4425;50.872;4.712;2022-12-20T05:25:44;11.80;99.90
8778;DHT22;4425;50.872;4.712;2022-12-20T05:28:29;11.80;99.90
8778;DHT22;4425;50.872;4.712;2022-12-20T05:30:58;11.80;99.90
8778;DHT22;4425;50.872;4.712;2022-12-20T05:33:27;11.70;99.90
8778;DHT22;4425;50.872;4.712;2022-12-20T05:35:56;11.70;99.90
8778;DHT22;4425;50.872;4.712;2022-12-20T05:38:23;11.70;99.90
8778;DHT22;4425;50.872;4.712;2022-12-20T05:40:51;11.60;99.90
8778;DHT22;4425;50.872;4.712;2022-12-20T05:43:21;11.70;99.90
8778;DHT22;4425;50.872;4.712;2022-12-20T05:45:52;11.60;99.90
8778;DHT22;4425;50.872;4.712;2022-12-20T05:48:19;11.60;99.90
8778;DHT22;4425;50.872;4.712;2022-12-20T05:50:48;11.60;99.90
8778;DHT22;4425;50.872;4.712;2022-12-20T05:53:16;11.60;99.90
8778;DHT22;4425;50.872;4.712;2022-12-20T05:55:44;11.60;99.90
8778;DHT22;4425;50.872;4.712;2022-12-20T05:58:13;11.70;99.90
8778;DHT22;4425;50.872;4.712;2022-12-20T06:00:43;11.60;99.90
8778;DHT22;4425;50.872;4.712;2022-12-20T06:03:12;11.60;99.90
8778;DHT22;4425;50.872;4.712;2022-12-20T06:05:40;11.60;99.90
8778;DHT22;4425;50.872;4.712;2022-12-20T06:08:11;11.60;99.90
8778;DHT22;4425;50.872;4.712;2022-12-20T06:10:39;11.60;99.90
8778;DHT22;4425;50.872;4.712;2022-12-20T06:13:09;11.60;99.90
8778;DHT22;4425;50.872;4.712;2022-12-20T06:15:36;11.50;99.90
8778;DHT22;4425;50.872;4.712;2022-12-20T06:18:04;11.60;99.90
8778;DHT22;4425;50.872;4.712;2022-12-20T06:20:32;11.50;99.90
8778;DHT22;4425;50.872;4.712;2022-12-20T06:22:59;11.50;99.90
8778;DHT22;4425;50.872;4.712;2022-12-20T06:25:31;11.40;99.90
8778;DHT22;4425;50.872;4.712;2022-12-20T06:27:59;11.50;99.90
8778;DHT22;4425;50.872;4.712;2022-12-20T06:30:26;11.50;99.90
8778;DHT22;4425;50.872;4.712;2022-12-20T06:33:14;11.60;99.90
8778;DHT22;4425;50.872;4.712;2022-12-20T06:35:44;11.60;99.90
8778;DHT22;4425;50.872;4.712;2022-12-20T06:38:17;11.60;99.90
8778;DHT22;4425;50.872;4.712;2022-12-20T06:40:49;11.60;99.90
8778;DHT22;4425;50.872;4.712;2022-12-20T06:43:21;11.60;99.90
8778;DHT22;4425;50.872;4.712;2022-12-20T06:45:53;11.70;99.90
8778;DHT22;4425;50.872;4.712;2022-12-20T06:48:20;11.70;99.90
8778;DHT22;4425;50.872;4.712;2022-12-20T06:50:49;11.80;99.90
8778;DHT22;4425;50.872;4.712;2022-12-20T06:53:16;11.80;99.90
8778;DHT22;4425;50.872;4.712;2022-12-20T06:55:50;11.90;99.90
8778;DHT22;4425;50.872;4.712;2022-12-20T06:58:31;11.90;99.90
8778;DHT22;4425;50.872;4.712;2022-12-20T07:01:02;11.90;99.90
8778;DHT22;4425;50.872;4.712;2022-12-20T07:03:29;12.00;99.90
8778;DHT22;4425;50.872;4.712;2022-12-20T07:06:00;12.00;99.90
8778;DHT22;4425;50.872;4.712;2022-12-20T07:08:30;12.00;99.90
8778;DHT22;4425;50.872;4.712;2022-12-20T07:11:05;12.00;99.90
8778;DHT22;4425;50.872;4.712;2022-12-20T07:13:36;12.00;99.90
8778;DHT22;4425;50.872;4.712;2022-12-20T07:16:05;12.00;99.90
8778;DHT22;4425;50.872;4.712;2022-12-20T07:18:33;12.00;99.90
8778;DHT22;4425;50.872;4.712;2022-12-20T07:21:05;12.00;99.90
8778;DHT22;4425;50.872;4.712;2022-12-20T07:23:34;12.00;99.90
8778;DHT22;4425;50.872;4.712;2022-12-20T07:26:07;11.90;99.90
8778;DHT22;4425;50.872;4.712;2022-12-20T07:28:36;11.90;99.90
8778;DHT22;4425;50.872;4.712;2022-12-20T07:31:03;11.90;99.90
8778;DHT22;4425;50.872;4.712;2022-12-20T07:33:31;11.80;99.90
8778;DHT22;4425;50.872;4.712;2022-12-20T07:36:00;11.70;99.90
8778;DHT22;4425;50.872;4.712;2022-12-20T07:38:27;11.70;99.90
8778;DHT22;4425;50.872;4.712;2022-12-20T07:40:55;11.70;99.90
8778;DHT22;4425;50.872;4.712;2022-12-20T07:43:23;11.70;99.90
8778;DHT22;4425;50.872;4.712;2022-12-20T07:45:53;11.60;99.90
8778;DHT22;4425;50.872;4.712;2022-12-20T07:48:22;11.60;99.90
8778;DHT22;4425;50.872;4.712;2022-12-20T07:50:51;11.60;99.90
8778;DHT22;4425;50.872;4.712;2022-12-20T07:53:22;11.60;99.90
8778;DHT22;4425;50.872;4.712;2022-12-20T07:55:50;11.50;99.90
8778;DHT22;4425;50.872;4.712;2022-12-20T07:58:19;11.50;99.90
8778;DHT22;4425;50.872;4.712;2022-12-20T08:00:50;11.40;99.90
8778;DHT22;4425;50.872;4.712;2022-12-20T08:03:22;11.40;99.90
8778;DHT22;4425;50.872;4.712;2022-12-20T08:05:55;11.40;99.90
8778;DHT22;4425;50.872;4.712;2022-12-20T08:08:24;11.30;99.90
8778;DHT22;4425;50.872;4.712;2022-12-20T08:10:51;11.30;99.90
8778;DHT22;4425;50.872;4.712;2022-12-20T08:13:18;11.20;99.90
8778;DHT22;4425;50.872;4.712;2022-12-20T08:15:45;11.20;99.90
8778;DHT22;4425;50.872;4.712;2022-12-20T08:18:14;11.10;99.90
8778;DHT22;4425;50.872;4.712;2022-12-20T08:20:41;11.10;99.90
8778;DHT22;4425;50.872;4.712;2022-12-20T08:23:08;11.20;99.90
8778;DHT22;4425;50.872;4.712;2022-12-20T08:25:36;11.20;99.90
8778;DHT22;4425;50.872;4.712;2022-12-20T08:28:03;11.20;99.90
8778;DHT22;4425;50.872;4.712;2022-12-20T08:30:31;11.20;99.90
8778;DHT22;4425;50.872;4.712;2022-12-20T08:32:59;11.20;99.90
8778;DHT22;4425;50.872;4.712;2022-12-20T08:35:27;11.20;99.90
8778;DHT22;4425;50.872;4.712;2022-12-20T08:37:54;11.20;99.90
8778;DHT22;4425;50.872;4.712;2022-12-20T08:40:23;11.20;99.90
8778;DHT22;4425;50.872;4.712;2022-12-20T08:43:05;11.20;99.90
8778;DHT22;4425;50.872;4.712;2022-12-20T08:45:32;11.20;99.90
8778;DHT22;4425;50.872;4.712;2022-12-20T08:47:59;11.20;99.90
8778;DHT22;4425;50.872;4.712;2022-12-20T08:50:29;11.20;99.90
8778;DHT22;4425;50.872;4.712;2022-12-20T08:52:56;11.20;99.90
8778;DHT22;4425;50.872;4.712;2022-12-20T08:55:28;11.20;99.90
8778;DHT22;4425;50.872;4.712;2022-12-20T08:57:59;11.20;99.90
8778;DHT22;4425;50.872;4.712;2022-12-20T09:00:26;11.20;99.90
8778;DHT22;4425;50.872;4.712;2022-12-20T09:02:59;11.30;99.90
8778;DHT22;4425;50.872;4.712;2022-12-20T09:05:35;11.30;99.90
8778;DHT22;4425;50.872;4.712;2022-12-20T09:08:03;11.40;99.90
8778;DHT22;4425;50.872;4.712;2022-12-20T09:10:33;11.50;99.90
8778;DHT22;4425;50.872;4.712;2022-12-20T09:13:01;11.50;99.90
8778;DHT22;4425;50.872;4.712;2022-12-20T09:15:29;11.50;99.90
8778;DHT22;4425;50.872;4.712;2022-12-20T09:17:58;11.60;99.90
8778;DHT22;4425;50.872;4.712;2022-12-20T09:20:26;11.70;99.90
8778;DHT22;4425;50.872;4.712;2022-12-20T09:22:56;11.80;99.90
8778;DHT22;4425;50.872;4.712;2022-12-20T09:25:25;11.90;99.90
8778;DHT22;4425;50.872;4.712;2022-12-20T09:27:54;11.80;99.90
8778;DHT22;4425;50.872;4.712;2022-12-20T09:30:30;11.80;99.90
8778;DHT22;4425;50.872;4.712;2022-12-20T09:32:59;11.80;99.90
8778;DHT22;4425;50.872;4.712;2022-12-20T09:35:26;11.70;99.90
8778;DHT22;4425;50.872;4.712;2022-12-20T09:38:05;11.70;99.90
8778;DHT22;4425;50.872;4.712;2022-12-20T09:40:33;11.70;99.90
8778;DHT22;4425;50.872;4.712;2022-12-20T09:43:03;11.70;99.90
8778;DHT22;4425;50.872;4.712;2022-12-20T09:45:34;11.80;99.90
8778;DHT22;4425;50.872;4.712;2022-12-20T09:48:03;11.80;99.90
8778;DHT22;4425;50.872;4.712;2022-12-20T09:50:42;11.90;99.90
8778;DHT22;4425;50.872;4.712;2022-12-20T09:53:23;11.80;99.90
8778;DHT22;4425;50.872;4.712;2022-12-20T09:56:09;11.80;99.90
8778;DHT22;4425;50.872;4.712;2022-12-20T09:58:58;11.80;99.90
8778;DHT22;4425;50.872;4.712;2022-12-20T10:01:28;11.70;99.90
8778;DHT22;4425;50.872;4.712;2022-12-20T10:03:58;11.70;99.90
8778;DHT22;4425;50.872;4.712;2022-12-20T10:06:34;11.70;99.90
8778;DHT22;4425;50.872;4.712;2022-12-20T10:09:12;11.70;99.90
8778;DHT22;4425;50.872;4.712;2022-12-20T10:11:57;11.60;99.90
8778;DHT22;4425;50.872;4.712;2022-12-20T10:14:49;11.60;99.90
8778;DHT22;4425;50.872;4.712;2022-12-20T10:17:30;11.60;99.90
8778;DHT22;4425;50.872;4.712;2022-12-20T10:20:07;11.60;99.90
8778;DHT22;4425;50.872;4.712;2022-12-20T10:22:45;11.60;99.90
8778;DHT22;4425;50.872;4.712;2022-12-20T10:28:16;11.60;99.90
8778;DHT22;4425;50.872;4.712;2022-12-20T10:30:44;11.60;99.90
8778;DHT22;4425;50.872;4.712;2022-12-20T10:33:18;11.60;99.90
8778;DHT22;4425;50.872;4.712;2022-12-20T10:35:48;11.60;99.90
8778;DHT22;4425;50.872;4.712;2022-12-20T10:38:18;11.60;99.90
8778;DHT22;4425;50.872;4.712;2022-12-20T10:41:00;11.60;99.90
8778;DHT22;4425;50.872;4.712;2022-12-20T10:43:59;11.60;99.90
8778;DHT22;4425;50.872;4.712;2022-12-20T10:46:36;11.70;99.90
8778;DHT22;4425;50.872;4.712;2022-12-20T10:49:29;11.70;99.90
8778;DHT22;4425;50.872;4.712;2022-12-20T10:52:00;11.60;99.90
8778;DHT22;4425;50.872;4.712;2022-12-20T10:54:31;11.60;99.90
8778;DHT22;4425;50.872;4.712;2022-12-20T10:57:17;11.60;99.90
8778;DHT22;4425;50.872;4.712;2022-12-20T10:59:49;11.60;99.90
8778;DHT22;4425;50.872;4.712;2022-12-20T11:02:26;11.60;99.90
8778;DHT22;4425;50.872;4.712;2022-12-20T11:04:58;11.60;99.90
8778;DHT22;4425;50.872;4.712;2022-12-20T11:07:27;11.60;99.90
8778;DHT22;4425;50.872;4.712;2022-12-20T11:09:57;11.60;99.90
8778;DHT22;4425;50.872;4.712;2022-12-20T11:12:29;11.60;99.90
8778;DHT22;4425;50.872;4.712;2022-12-20T11:15:18;11.50;99.90
8778;DHT22;4425;50.872;4.712;2022-12-20T11:17:48;11.50;99.90
8778;DHT22;4425;50.872;4.712;2022-12-20T11:20:24;11.50;99.90
8778;DHT22;4425;50.872;4.712;2022-12-20T11:23:07;11.50;99.90
8778;DHT22;4425;50.872;4.712;2022-12-20T11:25:50;11.40;99.90
8778;DHT22;4425;50.872;4.712;2022-12-20T11:28:32;11.50;99.90
8778;DHT22;4425;50.872;4.712;2022-12-20T11:31:16;11.50;99.90
8778;DHT22;4425;50.872;4.712;2022-12-20T11:33:57;11.50;99.90
8778;DHT22;4425;50.872;4.712;2022-12-20T11:36:36;11.50;99.90
8778;DHT22;4425;50.872;4.712;2022-12-20T11:39:13;11.50;99.90
8778;DHT22;4425;50.872;4.712;2022-12-20T11:41:47;11.50;99.90
8778;DHT22;4425;50.872;4.712;2022-12-20T11:44:21;11.50;99.90
8778;DHT22;4425;50.872;4.712;2022-12-20T11:47:07;11.50;99.90
8778;DHT22;4425;50.872;4.712;2022-12-20T11:49:58;11.50;99.90
8778;DHT22;4425;50.872;4.712;2022-12-20T11:52:34;11.50;99.90
8778;DHT22;4425;50.872;4.712;2022-12-20T11:55:08;11.40;99.90
8778;DHT22;4425;50.872;4.712;2022-12-20T11:57:47;11.40;99.90
8778;DHT22;4425;50.872;4.712;2022-12-20T12:00:17;11.40;99.90
8778;DHT22;4425;50.872;4.712;2022-12-20T12:02:56;11.40;99.90
8778;DHT22;4425;50.872;4.712;2022-12-20T12:05:38;11.40;99.90
8778;DHT22;4425;50.872;4.712;2022-12-20T12:08:12;11.30;99.90
8778;DHT22;4425;50.872;4.712;2022-12-20T12:10:44;11.30;99.90
8778;DHT22;4425;50.872;4.712;2022-12-20T12:13:20;11.30;99.90
8778;DHT22;4425;50.872;4.712;2022-12-20T12:15:56;11.30;99.90
8778;DHT22;4425;50.872;4.712;2022-12-20T12:18:28;11.30;99.90
8778;DHT22;4425;50.872;4.712;2022-12-20T12:21:01;11.30;99.90
8778;DHT22;4425;50.872;4.712;2022-12-20T12:23:35;11.30;99.90
8778;DHT22;4425;50.872;4.712;2022-12-20T12:26:06;11.20;99.90
8778;DHT22;4425;50.872;4.712;2022-12-20T12:28:36;11.20;99.90
8778;DHT22;4425;50.872;4.712;2022-12-20T12:31:05;11.20;99.90
8778;DHT22;4425;50.872;4.712;2022-12-20T12:33:42;11.10;99.90
8778;DHT22;4425;50.872;4.712;2022-12-20T12:36:32;11.10;99.90
8778;DHT22;4425;50.872;4.712;2022-12-20T12:39:35;11.10;99.90
8778;DHT22;4425;50.872;4.712;2022-12-20T12:45:16;11.00;99.90
8778;DHT22;4425;50.872;4.712;2022-12-20T12:47:50;11.00;99.90
8778;DHT22;4425;50.872;4.712;2022-12-20T12:50:55;11.00;99.90
8778;DHT22;4425;50.872;4.712;2022-12-20T12:53:28;10.90;99.90
8778;DHT22;4425;50.872;4.712;2022-12-20T12:55:58;10.90;99.90
8778;DHT22;4425;50.872;4.712;2022-12-20T13:02:34;10.90;99.90
8778;DHT22;4425;50.872;4.712;2022-12-20T13:05:31;10.90;99.90
8778;DHT22;4425;50.872;4.712;2022-12-20T13:07:59;10.80;99.90
8778;DHT22;4425;50.872;4.712;2022-12-20T13:10:58;10.80;99.90
8778;DHT22;4425;50.872;4.712;2022-12-20T13:13:27;10.80;99.90
8778;DHT22;4425;50.872;4.712;2022-12-20T13:16:12;10.80;99.90
8778;DHT22;4425;50.872;4.712;2022-12-20T13:19:02;10.90;99.90
8778;DHT22;4425;50.872;4.712;2022-12-20T13:21:54;10.80;99.90
8778;DHT22;4425;50.872;4.712;2022-12-20T13:24:37;10.80;99.90
8778;DHT22;4425;50.872;4.712;2022-12-20T13:27:28;10.80;99.90
8778;DHT22;4425;50.872;4.712;2022-12-20T13:30:25;10.80;99.90
8778;DHT22;4425;50.872;4.712;2022-12-20T13:39:35;10.90;99.90
8778;DHT22;4425;50.872;4.712;2022-12-20T13:42:15;10.80;99.90
8778;DHT22;4425;50.872;4.712;2022-12-20T13:44:47;10.90;99.90
8778;DHT22;4425;50.872;4.712;2022-12-20T13:47:33;10.80;99.90
8778;DHT22;4425;50.872;4.712;2022-12-20T13:50:21;10.80;99.90
8778;DHT22;4425;50.872;4.712;2022-12-20T13:52:50;10.80;99.90
8778;DHT22;4425;50.872;4.712;2022-12-20T13:55:30;10.80;99.90
8778;DHT22;4425;50.872;4.712;2022-12-20T13:58:04;10.80;99.90
8778;DHT22;4425;50.872;4.712;2022-12-20T14:00:32;10.90;99.90
8778;DHT22;4425;50.872;4.712;2022-12-20T14:03:00;10.90;99.90
8778;DHT22;4425;50.872;4.712;2022-12-20T14:05:37;10.90;99.90
8778;DHT22;4425;50.872;4.712;2022-12-20T14:08:07;10.90;99.90
8778;DHT22;4425;50.872;4.712;2022-12-20T14:13:59;10.90;99.90
8778;DHT22;4425;50.872;4.712;2022-12-20T14:16:31;10.90;99.90
8778;DHT22;4425;50.872;4.712;2022-12-20T14:19:05;10.90;99.90
8778;DHT22;4425;50.872;4.712;2022-12-20T14:21:35;10.90;99.90
8778;DHT22;4425;50.872;4.712;2022-12-20T14:24:12;10.90;99.90
8778;DHT22;4425;50.872;4.712;2022-12-20T14:26:47;10.90;99.90
8778;DHT22;4425;50.872;4.712;2022-12-20T14:29:25;10.90;99.90
8778;DHT22;4425;50.872;4.712;2022-12-20T14:32:03;10.80;99.90
8778;DHT22;4425;50.872;4.712;2022-12-20T14:34:33;10.80;99.90
8778;DHT22;4425;50.872;4.712;2022-12-20T14:37:26;10.80;99.90
8778;DHT22;4425;50.872;4.712;2022-12-20T14:40:17;10.80;99.90
8778;DHT22;4425;50.872;4.712;2022-12-20T14:42:47;10.80;99.90
8778;DHT22;4425;50.872;4.712;2022-12-20T14:45:20;10.80;99.90
8778;DHT22;4425;50.872;4.712;2022-12-20T14:47:53;10.90;99.90
8778;DHT22;4425;50.872;4.712;2022-12-20T14:50:31;10.90;99.90
8778;DHT22;4425;50.872;4.712;2022-12-20T14:53:00;10.90;99.90
8778;DHT22;4425;50.872;4.712;2022-12-20T14:55:34;10.90;99.90
8778;DHT22;4425;50.872;4.712;2022-12-20T14:58:26;10.90;99.90
8778;DHT22;4425;50.872;4.712;2022-12-20T15:00:56;10.90;99.90
8778;DHT22;4425;50.872;4.712;2022-12-20T15:03:26;10.90;99.90
8778;DHT22;4425;50.872;4.712;2022-12-20T15:05:56;10.80;99.90
8778;DHT22;4425;50.872;4.712;2022-12-20T15:08:27;10.90;99.90
8778;DHT22;4425;50.872;4.712;2022-12-20T15:10:59;10.80;99.90
8778;DHT22;4425;50.872;4.712;2022-12-20T15:13:32;10.80;99.90
8778;DHT22;4425;50.872;4.712;2022-12-20T15:16:01;10.80;99.90
8778;DHT22;4425;50.872;4.712;2022-12-20T15:18:29;10.80;99.90
8778;DHT22;4425;50.872;4.712;2022-12-20T15:21:00;10.80;99.90
8778;DHT22;4425;50.872;4.712;2022-12-20T15:23:29;10.70;99.90
8778;DHT22;4425;50.872;4.712;2022-12-20T15:25:57;10.70;99.90
8778;DHT22;4425;50.872;4.712;2022-12-20T15:28:25;10.70;99.90
8778;DHT22;4425;50.872;4.712;2022-12-20T15:30:56;10.70;99.90
8778;DHT22;4425;50.872;4.712;2022-12-20T15:33:25;10.70;99.90
8778;DHT22;4425;50.872;4.712;2022-12-20T15:35:54;10.70;99.90
8778;DHT22;4425;50.872;4.712;2022-12-20T15:38:22;10.70;99.90
8778;DHT22;4425;50.872;4.712;2022-12-20T15:40:54;10.70;99.90
8778;DHT22;4425;50.872;4.712;2022-12-20T15:43:23;10.60;99.90
8778;DHT22;4425;50.872;4.712;2022-12-20T15:45:52;10.60;99.90
8778;DHT22;4425;50.872;4.712;2022-12-20T15:48:22;10.60;99.90
8778;DHT22;4425;50.872;4.712;2022-12-20T15:50:53;10.70;99.90
8778;DHT22;4425;50.872;4.712;2022-12-20T15:53:26;10.60;99.90
8778;DHT22;4425;50.872;4.712;2022-12-20T15:56:00;10.60;99.90
8778;DHT22;4425;50.872;4.712;2022-12-20T15:58:43;10.60;99.90
8778;DHT22;4425;50.872;4.712;2022-12-20T16:01:16;10.60;99.90
8778;DHT22;4425;50.872;4.712;2022-12-20T16:04:01;10.60;99.90
8778;DHT22;4425;50.872;4.712;2022-12-20T16:06:31;10.60;99.90
8778;DHT22;4425;50.872;4.712;2022-12-20T16:08:59;10.60;99.90
8778;DHT22;4425;50.872;4.712;2022-12-20T16:11:29;10.50;99.90
8778;DHT22;4425;50.872;4.712;2022-12-20T16:14:24;10.60;99.90
8778;DHT22;4425;50.872;4.712;2022-12-20T16:17:11;10.50;99.90
8778;DHT22;4425;50.872;4.712;2022-12-20T16:19:57;10.50;99.90
8778;DHT22;4425;50.872;4.712;2022-12-20T16:22:28;10.50;99.90
8778;DHT22;4425;50.872;4.712;2022-12-20T16:24:56;10.50;99.90
8778;DHT22;4425;50.872;4.712;2022-12-20T16:27:30;10.50;99.90
8778;DHT22;4425;50.872;4.712;2022-12-20T16:29:57;10.50;99.90
8778;DHT22;4425;50.872;4.712;2022-12-20T16:32:25;10.50;99.90
8778;DHT22;4425;50.872;4.712;2022-12-20T16:34:59;10.50;99.90
8778;DHT22;4425;50.872;4.712;2022-12-20T16:37:29;10.50;99.90
8778;DHT22;4425;50.872;4.712;2022-12-20T16:39:57;10.50;99.90
8778;DHT22;4425;50.872;4.712;2022-12-20T16:42:26;10.50;99.90
8778;DHT22;4425;50.872;4.712;2022-12-20T16:45:01;10.50;99.90
8778;DHT22;4425;50.872;4.712;2022-12-20T16:47:31;10.50;99.90
8778;DHT22;4425;50.872;4.712;2022-12-20T16:50:03;10.40;99.90
8778;DHT22;4425;50.872;4.712;2022-12-20T16:52:38;10.40;99.90
8778;DHT22;4425;50.872;4.712;2022-12-20T16:55:14;10.40;99.90
8778;DHT22;4425;50.872;4.712;2022-12-20T16:57:43;10.40;99.90